createdAt,value
2023-09-20T00:01:34.842Z,98807.13
2023-09-20T00:04:07.133Z,98802.03
2023-09-20T00:06:33.954Z,98802.44
2023-09-20T00:09:01.334Z,98804.25
2023-09-20T00:11:28.111Z,98803.88
2023-09-20T00:13:55.058Z,98812.53
2023-09-20T00:16:23.393Z,98812.94
2023-09-20T00:18:50.455Z,98814.41
2023-09-20T00:21:16.968Z,98819.34
2023-09-20T00:23:43.888Z,98812.53
2023-09-20T00:26:11.230Z,98817.66
2023-09-20T00:28:39.496Z,98817.06
2023-09-20T00:31:07.055Z,98819.97
2023-09-20T00:33:33.611Z,98821.38
2023-09-20T00:36:00.336Z,98819.34
2023-09-20T00:38:26.902Z,98817.47
2023-09-20T00:40:53.669Z,98820.38
2023-09-20T00:43:25.327Z,98815.84
2023-09-20T00:45:53.003Z,98814.00
2023-09-20T00:48:20.824Z,98815.03
2023-09-20T00:50:49.283Z,98808.63
2023-09-20T00:53:16.469Z,98812.75
2023-09-20T00:55:44.539Z,98803.69
2023-09-20T00:58:17.850Z,98808.44
2023-09-20T01:00:44.834Z,98814.81
2023-09-20T01:03:18.589Z,98806.16
2023-09-20T01:05:49.073Z,98807.63
2023-09-20T01:08:19.091Z,98803.91
2023-09-20T01:10:47.818Z,98802.03
2023-09-20T01:13:16.559Z,98810.09
2023-09-20T01:15:43.831Z,98805.34
2023-09-20T01:18:10.451Z,98800.19
2023-09-20T01:20:40.416Z,98801.44
2023-09-20T01:23:07.057Z,98803.25
2023-09-20T01:25:37.032Z,98794.44
2023-09-20T01:28:07.263Z,98796.69
2023-09-20T01:30:37.903Z,98795.44
2023-09-20T01:33:08.667Z,98794.66
2023-09-20T01:35:37.984Z,98794.78
2023-09-20T01:38:07.591Z,98795.06
2023-09-20T01:40:36.041Z,98795.06
2023-09-20T01:43:05.162Z,98792.56
2023-09-20T01:45:33.419Z,98792.78
2023-09-20T01:48:06.929Z,98795.22
2023-09-20T01:50:34.300Z,98789.47
2023-09-20T01:53:06.137Z,98791.13
2023-09-20T01:55:32.872Z,98781.44
2023-09-20T01:58:04.247Z,98770.00
2023-09-20T02:00:34.343Z,98770.50
2023-09-20T02:03:07.522Z,98765.13
2023-09-20T02:05:37.727Z,98757.88
2023-09-20T02:08:07.113Z,98764.56
2023-09-20T02:10:34.431Z,98763.75
2023-09-20T02:13:01.815Z,98764.97
2023-09-20T02:15:30.893Z,98767.03
2023-09-20T02:17:57.516Z,98764.25
2023-09-20T02:20:26.787Z,98765.75
2023-09-20T02:22:56.582Z,98762.78
2023-09-20T02:25:25.364Z,98766.66
2023-09-20T02:27:58.170Z,98765.84
2023-09-20T02:30:29.733Z,98757.66
2023-09-20T02:32:59.001Z,98761.97
2023-09-20T02:35:29.056Z,98758.53
2023-09-20T02:37:57.278Z,98752.66
2023-09-20T02:40:24.773Z,98757.56
2023-09-20T02:42:55.138Z,98754.81
2023-09-20T02:45:24.493Z,98755.63
2023-09-20T02:47:53.185Z,98753.13
2023-09-20T02:50:24.369Z,98749.47
2023-09-20T02:52:53.540Z,98750.75
2023-09-20T02:55:22.448Z,98749.50
2023-09-20T02:57:55.592Z,98741.97
2023-09-20T03:00:29.626Z,98744.38
2023-09-20T03:03:04.348Z,98740.69
2023-09-20T03:05:35.036Z,98737.81
2023-09-20T03:08:03.189Z,98733.47
2023-09-20T03:10:30.105Z,98732.56
2023-09-20T03:12:58.970Z,98738.63
2023-09-20T03:15:28.307Z,98727.63
2023-09-20T03:18:03.703Z,98728.84
2023-09-20T03:20:34.754Z,98722.09
2023-09-20T03:23:04.654Z,98721.38
2023-09-20T03:25:37.537Z,98728.19
2023-09-20T03:28:08.898Z,98729.09
2023-09-20T03:30:39.711Z,98736.94
2023-09-20T03:33:08.384Z,98731.59
2023-09-20T03:35:35.661Z,98718.47
2023-09-20T03:38:03.785Z,98722.97
2023-09-20T03:40:30.309Z,98725.25
2023-09-20T03:42:56.919Z,98715.41
2023-09-20T03:45:25.300Z,98714.78
2023-09-20T03:47:55.110Z,98721.38
2023-09-20T03:50:22.723Z,98713.53
2023-09-20T03:52:50.713Z,98716.03
2023-09-20T03:55:18.465Z,98716.34
2023-09-20T03:57:45.138Z,98718.56
2023-09-20T04:00:13.241Z,98713.75
2023-09-20T04:02:41.336Z,98714.16
2023-09-20T04:05:12.259Z,98707.75
2023-09-20T04:07:40.569Z,98704.63
2023-09-20T04:10:09.090Z,98707.91
2023-09-20T04:12:37.694Z,98702.13
2023-09-20T04:15:06.028Z,98712.38
2023-09-20T04:17:35.498Z,98712.84
2023-09-20T04:20:09.175Z,98709.16
2023-09-20T04:22:38.399Z,98703.75
2023-09-20T04:25:06.941Z,98705.81
2023-09-20T04:27:33.510Z,98710.50
2023-09-20T04:30:01.021Z,98706.56
2023-09-20T04:32:27.645Z,98709.88
2023-09-20T04:34:55.044Z,98704.78
2023-09-20T04:37:24.074Z,98705.41
2023-09-20T04:39:50.946Z,98708.63
2023-09-20T04:42:17.655Z,98712.41
2023-09-20T04:44:44.279Z,98705.00
2023-09-20T04:47:12.089Z,98699.88
2023-09-20T04:49:39.263Z,98705.03
2023-09-20T04:52:06.898Z,98704.59
2023-09-20T04:54:35.008Z,98696.94
2023-09-20T04:57:02.472Z,98700.06
2023-09-20T04:59:29.687Z,98705.84
2023-09-20T05:01:56.227Z,98704.22
2023-09-20T05:04:22.892Z,98705.94
2023-09-20T05:06:50.972Z,98709.88
2023-09-20T05:09:17.469Z,98701.66
2023-09-20T05:11:44.036Z,98702.50
2023-09-20T05:14:10.604Z,98701.91
2023-09-20T05:16:37.109Z,98698.00
2023-09-20T05:19:04.348Z,98694.44
2023-09-20T05:21:31.036Z,98695.34
2023-09-20T05:23:58.509Z,98693.75
2023-09-20T05:26:25.342Z,98691.28
2023-09-20T05:28:51.867Z,98693.91
2023-09-20T05:31:18.573Z,98689.50
2023-09-20T05:33:45.098Z,98685.66
2023-09-20T05:36:11.651Z,98680.25
2023-09-20T05:38:38.247Z,98679.94
2023-09-20T05:41:05.055Z,98684.94
2023-09-20T05:43:31.657Z,98684.53
2023-09-20T05:46:00.908Z,98682.81
2023-09-20T05:48:27.658Z,98684.59
2023-09-20T05:50:55.273Z,98678.28
2023-09-20T05:53:22.391Z,98677.44
2023-09-20T05:55:50.544Z,98679.94
2023-09-20T05:58:17.075Z,98679.47
2023-09-20T06:00:43.898Z,98684.88
2023-09-20T06:03:14.191Z,98683.56
2023-09-20T06:05:41.019Z,98684.81
2023-09-20T06:08:07.758Z,98681.75
2023-09-20T06:10:34.749Z,98680.06
2023-09-20T06:13:01.572Z,98680.75
2023-09-20T06:15:28.113Z,98682.19
2023-09-20T06:17:54.670Z,98682.00
2023-09-20T06:20:21.424Z,98664.72
2023-09-20T06:22:49.879Z,98663.03
2023-09-20T06:25:20.349Z,98659.78
2023-09-20T06:27:47.110Z,98657.06
2023-09-20T06:30:13.924Z,98673.44
2023-09-20T06:32:43.459Z,98669.25
2023-09-20T06:35:11.806Z,98667.75
2023-09-20T06:37:40.136Z,98672.25
2023-09-20T06:40:24.781Z,98672.41
2023-09-20T06:42:51.754Z,98669.56
2023-09-20T06:45:23.547Z,98666.75
2023-09-20T06:47:50.232Z,98660.78
2023-09-20T06:50:17.046Z,98671.00
2023-09-20T06:52:44.319Z,98679.72
2023-09-20T06:55:20.138Z,98664.38
2023-09-20T06:57:48.912Z,98661.97
2023-09-20T07:00:17.843Z,98662.09
2023-09-20T07:02:44.538Z,98663.06
2023-09-20T07:05:11.218Z,98667.44
2023-09-20T07:07:37.805Z,98661.31
2023-09-20T07:10:06.251Z,98662.41
2023-09-20T07:12:35.653Z,98664.91
2023-09-20T07:15:02.236Z,98672.94
2023-09-20T07:17:29.078Z,98667.00
2023-09-20T07:19:58.114Z,98663.03
2023-09-20T07:22:24.854Z,98669.69
2023-09-20T07:24:55.736Z,98672.28
2023-09-20T07:27:22.257Z,98668.00
2023-09-20T07:29:50.264Z,98679.53
2023-09-20T07:32:16.871Z,98672.81
2023-09-20T07:34:48.193Z,98679.44
2023-09-20T07:37:17.893Z,98680.34
2023-09-20T07:39:46.981Z,98676.50
2023-09-20T07:42:14.429Z,98679.22
2023-09-20T07:44:41.920Z,98680.44
2023-09-20T07:47:08.460Z,98681.59
2023-09-20T07:49:36.086Z,98669.88
2023-09-20T07:52:05.511Z,98680.75
2023-09-20T07:54:32.081Z,98684.75
2023-09-20T07:56:58.779Z,98677.25
2023-09-20T07:59:27.848Z,98679.72
2023-09-20T08:01:54.967Z,98685.63
2023-09-20T08:04:23.006Z,98682.75
2023-09-20T08:06:49.746Z,98677.72
2023-09-20T08:09:16.279Z,98678.41
2023-09-20T08:11:42.868Z,98684.22
2023-09-20T08:14:09.899Z,98682.94
2023-09-20T08:19:22.470Z,98675.41
2023-09-20T08:21:49.891Z,98673.66
2023-09-20T08:24:36.616Z,98669.16
2023-09-20T08:27:23.221Z,98668.03
2023-09-20T08:30:09.779Z,98673.94
2023-09-20T08:32:56.300Z,98675.84
2023-09-20T08:35:42.910Z,98669.59
2023-09-20T08:38:29.449Z,98668.47
2023-09-20T08:41:16.248Z,98667.63
2023-09-20T08:44:02.863Z,98676.22
2023-09-20T08:46:56.211Z,98662.25
2023-09-20T08:49:51.683Z,98663.16
2023-09-20T08:52:41.441Z,98665.47
2023-09-20T08:55:31.187Z,98666.25
2023-09-20T08:58:18.351Z,98667.97
2023-09-20T09:00:49.426Z,98658.44
2023-09-20T09:03:17.188Z,98658.81
2023-09-20T09:05:44.160Z,98657.25
2023-09-20T09:08:11.727Z,98646.53
2023-09-20T09:10:38.339Z,98651.81
2023-09-20T09:13:05.213Z,98645.56
2023-09-20T09:15:31.775Z,98650.81
2023-09-20T09:17:58.563Z,98652.75
2023-09-20T09:20:27.062Z,98646.63
2023-09-20T09:22:54.943Z,98647.50
2023-09-20T09:25:31.888Z,98644.44
2023-09-20T09:27:59.004Z,98640.91
2023-09-20T09:30:28.037Z,98632.81
2023-09-20T09:32:54.854Z,98634.53
2023-09-20T09:35:35.179Z,98632.50
2023-09-20T09:38:07.665Z,98634.50
2023-09-20T09:40:54.576Z,98634.03
2023-09-20T09:43:21.312Z,98629.88
2023-09-20T09:45:51.111Z,98637.69
2023-09-20T09:48:18.147Z,98632.06
2023-09-20T09:50:47.731Z,98626.69
2023-09-20T09:53:16.596Z,98630.72
2023-09-20T09:55:44.006Z,98611.69
2023-09-20T09:58:10.705Z,98613.06
2023-09-20T10:00:42.376Z,98622.03
2023-09-20T10:03:26.327Z,98629.50
2023-09-20T10:06:06.966Z,98621.13
2023-09-20T10:08:41.050Z,98629.91
2023-09-20T10:11:10.226Z,98613.91
2023-09-20T10:13:41.162Z,98615.25
2023-09-20T10:16:13.120Z,98613.09
2023-09-20T10:19:01.539Z,98612.31
2023-09-20T10:21:32.802Z,98623.09
2023-09-20T10:24:08.892Z,98617.63
2023-09-20T10:26:41.360Z,98609.28
2023-09-20T10:29:29.975Z,98607.91
2023-09-20T10:32:15.127Z,98602.13
2023-09-20T10:35:01.807Z,98608.16
2023-09-20T10:37:28.529Z,98619.69
2023-09-20T10:39:59.179Z,98612.16
2023-09-20T10:42:27.752Z,98605.94
2023-09-20T10:45:01.239Z,98608.38
2023-09-20T10:47:27.886Z,98594.56
2023-09-20T10:49:56.859Z,98596.25
2023-09-20T10:52:39.485Z,98600.13
2023-09-20T10:55:29.604Z,98611.88
2023-09-20T10:57:58.073Z,98597.44
2023-09-20T11:00:31.692Z,98598.50
2023-09-20T11:02:58.905Z,98597.47
2023-09-20T11:05:29.389Z,98602.06
2023-09-20T11:07:56.875Z,98600.50
2023-09-20T11:10:24.259Z,98594.78
2023-09-20T11:12:56.155Z,98579.69
2023-09-20T11:15:25.009Z,98580.75
2023-09-20T11:17:52.506Z,98585.06
2023-09-20T11:20:19.835Z,98584.00
2023-09-20T11:22:46.739Z,98577.78
2023-09-20T11:25:13.375Z,98584.03
2023-09-20T11:27:40.454Z,98569.34
2023-09-20T11:30:10.100Z,98574.22
2023-09-20T11:32:40.564Z,98557.66
2023-09-20T11:35:08.585Z,98560.88
2023-09-20T11:37:36.505Z,98567.19
2023-09-20T11:40:05.860Z,98562.34
2023-09-20T11:42:35.569Z,98547.69
2023-09-20T11:47:43.842Z,98561.72
2023-09-20T11:50:15.061Z,98539.56
2023-09-20T11:52:50.770Z,98543.56
2023-09-20T11:55:20.696Z,98538.63
2023-09-20T11:57:48.935Z,98541.69
2023-09-20T12:00:20.409Z,98524.91
2023-09-20T12:02:48.921Z,98521.03
2023-09-20T12:05:20.395Z,98523.84
2023-09-20T12:08:03.767Z,98522.41
2023-09-20T12:10:31.900Z,98513.03
2023-09-20T12:12:59.588Z,98514.53
2023-09-20T12:15:26.693Z,98514.31
2023-09-20T12:17:57.249Z,98518.03
2023-09-20T12:20:26.727Z,98499.03
2023-09-20T12:22:54.745Z,98488.84
2023-09-20T12:25:21.825Z,98507.63
2023-09-20T12:27:48.421Z,98493.91
2023-09-20T12:30:15.007Z,98489.44
2023-09-20T12:32:42.747Z,98493.09
2023-09-20T12:35:11.214Z,98486.69
2023-09-20T12:37:38.661Z,98471.06
2023-09-20T12:40:10.113Z,98469.88
2023-09-20T12:42:39.105Z,98476.38
2023-09-20T12:45:08.895Z,98450.19
2023-09-20T12:47:37.367Z,98461.19
2023-09-20T12:50:04.987Z,98461.25
2023-09-20T12:52:32.808Z,98453.91
2023-09-20T12:55:00.103Z,98463.31
2023-09-20T12:57:26.774Z,98449.78
2023-09-20T12:59:54.190Z,98450.34
2023-09-20T13:02:20.805Z,98436.00
2023-09-20T13:04:47.582Z,98426.94
2023-09-20T13:07:14.479Z,98426.03
2023-09-20T13:09:41.205Z,98429.91
2023-09-20T13:12:09.195Z,98422.00
2023-09-20T13:14:36.368Z,98412.47
2023-09-20T13:17:03.152Z,98418.19
2023-09-20T13:19:29.760Z,98406.50
2023-09-20T13:22:00.334Z,98412.47
2023-09-20T13:24:27.111Z,98402.72
2023-09-20T13:26:53.638Z,98409.44
2023-09-20T13:29:20.228Z,98403.53
2023-09-20T13:31:47.306Z,98400.31
2023-09-20T13:34:16.678Z,98395.53
2023-09-20T13:36:48.255Z,98393.91
2023-09-20T13:39:17.576Z,98396.94
2023-09-20T13:41:45.507Z,98389.28
2023-09-20T13:44:12.065Z,98386.06
2023-09-20T13:46:39.690Z,98383.31
2023-09-20T13:49:07.818Z,98377.97
2023-09-20T13:51:34.524Z,98384.38
2023-09-20T13:54:01.067Z,98386.91
2023-09-20T13:56:28.769Z,98386.59
2023-09-20T13:58:55.555Z,98392.66
2023-09-20T14:01:22.869Z,98395.91
2023-09-20T14:03:49.655Z,98397.03
2023-09-20T14:06:18.333Z,98393.41
2023-09-20T14:08:45.770Z,98396.34
2023-09-20T14:11:14.263Z,98393.63
2023-09-20T14:13:41.941Z,98383.66
2023-09-20T14:16:11.978Z,98381.97
2023-09-20T14:18:38.607Z,98381.13
2023-09-20T14:21:06.681Z,98381.16
2023-09-20T14:23:33.886Z,98383.81
2023-09-20T14:26:01.410Z,98377.44
2023-09-20T14:28:28.022Z,98378.78
2023-09-20T14:30:54.898Z,98372.50
2023-09-20T14:33:22.678Z,98368.41
2023-09-20T14:35:50.672Z,98370.19
2023-09-20T14:38:17.509Z,98365.41
2023-09-20T14:40:44.475Z,98358.69
2023-09-20T14:43:12.074Z,98358.94
2023-09-20T14:45:38.756Z,98352.19
2023-09-20T14:48:07.642Z,98358.59
2023-09-20T14:50:35.256Z,98357.00
2023-09-20T14:53:03.270Z,98348.56
2023-09-20T14:55:31.316Z,98341.72
2023-09-20T14:57:59.345Z,98338.75
2023-09-20T15:00:27.184Z,98333.91
2023-09-20T15:02:57.372Z,98332.53
2023-09-20T15:05:25.904Z,98331.91
2023-09-20T15:07:54.858Z,98324.94
2023-09-20T15:10:25.631Z,98317.09
2023-09-20T15:12:58.753Z,98321.16
2023-09-20T15:15:28.673Z,98324.16
2023-09-20T15:17:55.399Z,98312.81
2023-09-20T15:20:22.031Z,98312.03
2023-09-20T15:22:50.392Z,98310.94
2023-09-20T15:25:17.233Z,98302.25
2023-09-20T15:27:45.701Z,98306.31
2023-09-20T15:30:14.910Z,98302.25
2023-09-20T15:32:43.542Z,98298.44
2023-09-20T15:35:10.798Z,98289.78
2023-09-20T15:37:46.034Z,98276.56
2023-09-20T15:40:16.459Z,98282.53
2023-09-20T15:42:45.952Z,98280.91
2023-09-20T15:45:15.131Z,98272.22
2023-09-20T15:47:42.275Z,98278.19
2023-09-20T15:50:11.136Z,98270.06
2023-09-20T15:52:41.065Z,98267.63
2023-09-20T15:55:10.861Z,98263.00
2023-09-20T15:57:37.972Z,98261.38
2023-09-20T16:00:13.836Z,98253.25
2023-09-20T16:02:41.358Z,98255.41
2023-09-20T16:05:10.478Z,98251.06
2023-09-20T16:07:40.614Z,98253.25
2023-09-20T16:10:14.037Z,98247.03
2023-09-20T16:12:41.435Z,98249.72
2023-09-20T16:15:10.895Z,98252.69
2023-09-20T16:17:39.254Z,98243.75
2023-09-20T16:20:08.526Z,98244.31
2023-09-20T16:22:35.985Z,98240.19
2023-09-20T16:25:04.304Z,98236.34
2023-09-20T16:27:30.825Z,98236.84
2023-09-20T16:29:57.427Z,98233.03
2023-09-20T16:32:24.274Z,98230.84
2023-09-20T16:34:51.240Z,98236.72
2023-09-20T16:37:17.991Z,98231.84
2023-09-20T16:39:44.858Z,98231.28
2023-09-20T16:42:11.488Z,98234.47
2023-09-20T16:44:39.396Z,98238.19
2023-09-20T16:47:08.510Z,98236.72
2023-09-20T16:49:35.004Z,98240.50
2023-09-20T16:52:02.199Z,98233.66
2023-09-20T16:54:29.112Z,98233.50
2023-09-20T16:56:57.207Z,98226.47
2023-09-20T16:59:23.777Z,98223.22
2023-09-20T17:01:50.586Z,98223.34
2023-09-20T17:04:17.195Z,98229.72
2023-09-20T17:06:43.977Z,98225.25
2023-09-20T17:09:12.752Z,98228.72
2023-09-20T17:11:39.612Z,98235.38
2023-09-20T17:14:07.289Z,98225.09
2023-09-20T17:16:33.981Z,98228.44
2023-09-20T17:19:00.952Z,98231.56
2023-09-20T17:21:27.561Z,98232.19
2023-09-20T17:23:55.222Z,98227.97
2023-09-20T17:26:22.088Z,98219.53
2023-09-20T17:28:48.671Z,98223.91
2023-09-20T17:31:15.315Z,98217.69
2023-09-20T17:33:41.980Z,98220.94
2023-09-20T17:36:12.692Z,98214.78
2023-09-20T17:38:43.981Z,98212.59
2023-09-20T17:41:13.045Z,98214.75
2023-09-20T17:43:39.548Z,98211.00
2023-09-20T17:46:07.077Z,98211.00
2023-09-20T17:48:34.594Z,98214.78
2023-09-20T17:51:01.456Z,98217.59
2023-09-20T17:53:29.431Z,98218.91
2023-09-20T17:55:55.976Z,98217.50
2023-09-20T17:58:22.600Z,98206.00
2023-09-20T18:00:49.175Z,98217.00
2023-09-20T18:03:15.852Z,98207.41
2023-09-20T18:05:42.942Z,98214.09
2023-09-20T18:08:09.582Z,98215.63
2023-09-20T18:10:36.070Z,98213.69
2023-09-20T18:13:04.277Z,98218.19
2023-09-20T18:15:31.393Z,98216.59
2023-09-20T18:17:58.141Z,98209.31
2023-09-20T18:20:25.123Z,98208.50
2023-09-20T18:22:52.657Z,98210.88
2023-09-20T18:25:20.834Z,98212.34
2023-09-20T18:27:51.851Z,98211.28
2023-09-20T18:30:19.059Z,98211.22
2023-09-20T18:32:46.073Z,98211.69
2023-09-20T18:35:12.716Z,98223.81
2023-09-20T18:37:39.450Z,98226.78
2023-09-20T18:40:09.331Z,98221.38
2023-09-20T18:42:35.882Z,98225.84
2023-09-20T18:45:03.081Z,98218.31
2023-09-20T18:47:42.999Z,98222.28
2023-09-20T18:50:14.865Z,98220.25
2023-09-20T18:52:42.085Z,98216.88
2023-09-20T18:55:08.866Z,98211.63
2023-09-20T18:57:35.360Z,98211.66
2023-09-20T19:00:02.406Z,98209.81
2023-09-20T19:02:29.232Z,98208.69
2023-09-20T19:04:56.840Z,98218.16
2023-09-20T19:07:24.503Z,98206.72
2023-09-20T19:09:55.721Z,98207.44
2023-09-20T19:12:23.781Z,98208.75
2023-09-20T19:14:51.782Z,98208.84
2023-09-20T19:17:19.120Z,98204.38
2023-09-20T19:19:45.912Z,98207.69
2023-09-20T19:22:14.811Z,98202.59
2023-09-20T19:24:43.674Z,98210.50
2023-09-20T19:27:11.380Z,98216.94
2023-09-20T19:29:38.906Z,98208.03
2023-09-20T19:32:05.459Z,98207.13
2023-09-20T19:34:34.234Z,98202.19
2023-09-20T19:37:01.798Z,98208.28
2023-09-20T19:39:29.732Z,98202.00
2023-09-20T19:41:57.902Z,98199.53
2023-09-20T19:44:26.553Z,98202.00
2023-09-20T19:46:53.075Z,98191.97
2023-09-20T19:49:19.623Z,98189.28
2023-09-20T19:51:47.975Z,98194.63
2023-09-20T19:54:15.389Z,98196.34
2023-09-20T19:56:43.579Z,98201.84
2023-09-20T19:59:12.595Z,98199.25
2023-09-20T20:01:40.454Z,98206.03
2023-09-20T20:04:09.864Z,98200.06
2023-09-20T20:06:37.279Z,98203.16
2023-09-20T20:09:07.299Z,98207.63
2023-09-20T20:11:34.210Z,98198.75
2023-09-20T20:14:00.709Z,98207.50
2023-09-20T20:16:28.262Z,98213.16
2023-09-20T20:18:57.735Z,98209.81
2023-09-20T20:21:25.970Z,98210.00
2023-09-20T20:23:54.877Z,98214.38
2023-09-20T20:26:22.733Z,98217.38
2023-09-20T20:28:51.137Z,98212.00
2023-09-20T20:31:21.061Z,98207.69
2023-09-20T20:33:47.970Z,98209.44
2023-09-20T20:36:15.307Z,98209.09
2023-09-20T20:38:42.642Z,98209.72
2023-09-20T20:41:10.424Z,98205.63
2023-09-20T20:43:38.222Z,98199.94
2023-09-20T20:46:15.876Z,98202.56
2023-09-20T20:48:45.259Z,98195.22
2023-09-20T20:51:16.174Z,98196.16
2023-09-20T20:53:48.404Z,98185.72
2023-09-20T20:56:17.269Z,98188.50
2023-09-20T20:58:48.034Z,98186.13
2023-09-20T21:01:15.719Z,98181.31
2023-09-20T21:03:42.881Z,98177.56
2023-09-20T21:06:10.866Z,98182.16
2023-09-20T21:08:38.668Z,98175.09
2023-09-20T21:11:08.812Z,98180.72
2023-09-20T21:13:37.632Z,98172.50
2023-09-20T21:16:05.680Z,98174.53
2023-09-20T21:18:32.454Z,98176.38
2023-09-20T21:21:06.718Z,98172.50
2023-09-20T21:23:35.877Z,98172.53
2023-09-20T21:26:04.589Z,98173.28
2023-09-20T21:28:31.161Z,98163.78
2023-09-20T21:30:57.792Z,98170.09
2023-09-20T21:33:24.469Z,98163.44
2023-09-20T21:35:51.930Z,98161.28
2023-09-20T21:38:19.252Z,98165.63
2023-09-20T21:40:46.093Z,98166.81
2023-09-20T21:43:13.374Z,98169.72
2023-09-20T21:45:39.989Z,98163.84
2023-09-20T21:48:07.848Z,98157.44
2023-09-20T21:50:35.968Z,98149.25
2023-09-20T21:53:05.026Z,98148.44
2023-09-20T21:55:32.101Z,98148.66
2023-09-20T21:57:58.863Z,98155.69
2023-09-20T22:00:27.417Z,98147.66
2023-09-20T22:03:02.134Z,98150.81
2023-09-20T22:05:29.632Z,98147.94
2023-09-20T22:08:03.225Z,98142.81
2023-09-20T22:10:38.933Z,98150.75
2023-09-20T22:13:08.150Z,98136.78
2023-09-20T22:15:37.356Z,98148.66
2023-09-20T22:18:12.778Z,98135.13
2023-09-20T22:20:39.586Z,98150.09
2023-09-20T22:23:08.986Z,98140.34
2023-09-20T22:25:35.588Z,98144.78
2023-09-20T22:28:02.404Z,98139.72
2023-09-20T22:30:28.908Z,98146.56
2023-09-20T22:32:55.475Z,98142.59
2023-09-20T22:35:22.531Z,98143.25
2023-09-20T22:37:53.722Z,98133.31
2023-09-20T22:40:23.064Z,98135.72
2023-09-20T22:42:52.679Z,98134.16
2023-09-20T22:45:27.341Z,98132.41
2023-09-20T22:48:00.053Z,98120.78
2023-09-20T22:50:29.812Z,98110.66
2023-09-20T22:53:07.251Z,98114.09
2023-09-20T22:55:40.249Z,98113.19
2023-09-20T22:58:15.454Z,98112.47
2023-09-20T23:00:45.642Z,98103.53
2023-09-20T23:03:15.311Z,98112.38
2023-09-20T23:05:44.371Z,98106.03
2023-09-20T23:08:12.856Z,98104.78
2023-09-20T23:10:45.561Z,98107.00
2023-09-20T23:13:20.052Z,98102.53
2023-09-20T23:15:52.827Z,98098.53
2023-09-20T23:18:23.513Z,98091.66
2023-09-20T23:20:53.382Z,98089.97
2023-09-20T23:23:20.610Z,98088.44
2023-09-20T23:25:50.804Z,98082.41
2023-09-20T23:28:18.046Z,98082.78
2023-09-20T23:30:47.036Z,98087.47
2023-09-20T23:33:17.894Z,98087.03
2023-09-20T23:35:59.882Z,98084.31
2023-09-20T23:38:29.759Z,98085.22
2023-09-20T23:41:06.598Z,98083.19
2023-09-20T23:43:35.155Z,98083.78
2023-09-20T23:46:10.910Z,98076.78
2023-09-20T23:48:42.423Z,98064.06
2023-09-20T23:51:09.682Z,98066.41
2023-09-20T23:53:40.477Z,98067.75
2023-09-20T23:56:08.058Z,98052.38
2023-09-20T23:58:35.802Z,98053.16
